Celebrity Infinity — 9HJD9 — position and weather

sailwx.info

Track history (hours):
 
Tides and Currents Weather Stations Pressure Air Temp Water Temp Dewpoint Dewpoint Depression Visibility Wind Speed Wind Dir Waves Ship Positions

Celebrity Infinity

Last reported at 2017-Sep-26 05:30 UTC. Time now 2017-Sep-26 05:55 UTC.
Position N 34°44' W 121°06'.

Length 294 m; draft 8.3 m.

Type: Passenger vessel. MMSI: 249048000.

Date/timePositionNaut miles runAvg speedWind from/ knotsBaromVisibWave heightAir tempDewpointWater temp
2017-Sep-26 05:30N 34°44' W 121°06'816.9
2017-Sep-26 05:01N 34°37' W 121°00'917.1
2017-Sep-26 04:28N 34°30' W 120°55'716.0
2017-Sep-26 04:01N 34°25' W 120°47'917.2
2017-Sep-26 03:29N 34°23' W 120°37'917.3
2017-Sep-26 02:59N 34°21' W 120°27'816.9
2017-Sep-26 02:29N 34°18' W 120°17'816.8
2017-Sep-26 02:00N 34°16' W 120°07'121029.5
2017-Sep-26 02:00N 34°12' W 119°54'3 7.1 270 / 181005.0 5.4 23.0
2017-Sep-26 01:30N 34°14' W 119°58'916.3
2017-Sep-26 00:58N 34°12' W 119°47'816.5
2017-Sep-26 00:31N 34°19' W 119°43'5 9.8
2017-Sep-26 00:00N 34°24' W 119°41'0 0.1
2017-Sep-25 23:21N 34°24' W 119°41'0 0.0
2017-Sep-25 22:57N 34°24' W 119°41'0 0.0
2017-Sep-25 22:30N 34°24' W 119°41'0 0.0
2017-Sep-25 18:07N 34°24' W 119°41'0 0.0
2017-Sep-25 17:45N 34°24' W 119°41'0 0.0
2017-Sep-25 17:24N 34°24' W 119°41'0 0.0
2017-Sep-25 16:48N 34°24' W 119°41'0 0.0
2017-Sep-25 14:23N 34°24' W 119°41'0 0.1
2017-Sep-25 13:47N 34°24' W 119°41'0 0.1
2017-Sep-25 13:30N 34°24' W 119°41'0 0.6
2017-Sep-25 13:00N 34°24' W 119°41'3 6.6
2017-Sep-25 12:29N 34°20' W 119°40'4 7.3
2017-Sep-25 12:00N 34°17' W 119°39'5596.5
2017-Sep-25 12:00N 34°12' W 119°36'2 4.9 350 / 41006.0 5.4 15.0
2017-Sep-25 11:30N 34°13' W 119°39'4 7.0
2017-Sep-25 11:00N 34°10' W 119°37'3 6.7
2017-Sep-25 10:30N 34°09' W 119°33'4 6.8
2017-Sep-25 09:55N 34°08' W 119°29'3 6.0
2017-Sep-25 09:28N 34°07' W 119°26'3 6.1
2017-Sep-25 08:59N 34°06' W 119°22'3 6.2
2017-Sep-25 08:30N 34°05' W 119°19'3 6.5
2017-Sep-25 08:00N 34°04' W 119°15'5393.7
2017-Sep-25 08:00N 34°00' W 119°12'3 5.3 120 / 41008.0 20.0 15.0
2017-Sep-25 07:30N 34°03' W 119°11'4 7.4
2017-Sep-25 07:00N 34°01' W 119°07'4 7.2
2017-Sep-25 06:29N 33°59' W 119°03'4 7.5
2017-Sep-25 06:00N 33°57' W 118°60'4 7.4
2017-Sep-25 05:30N 33°55' W 118°56'4 7.4
2017-Sep-25 05:00N 33°53' W 118°52'4 7.2
2017-Sep-25 04:30N 33°51' W 118°48'4 7.2
2017-Sep-25 04:00N 33°50' W 118°44'4 7.2
2017-Sep-25 03:30N 33°48' W 118°41'3 6.9
2017-Sep-25 03:00N 33°46' W 118°37'3 6.9
2017-Sep-25 02:30N 33°44' W 118°33'4 7.0
2017-Sep-25 02:00N 33°43' W 118°30'5332.2
2017-Sep-25 02:00N 33°42' W 118°24'2 4.3 250 / 211006.0 5.4 18.0
2017-Sep-25 01:30N 33°41' W 118°26'510.9
2017-Sep-25 01:00N 33°39' W 118°20'4 7.5
2017-Sep-25 00:30N 33°39' W 118°16'3 6.7
2017-Sep-25 00:01N 33°43' W 118°15'2 4.8
2017-Sep-24 23:30N 33°45' W 118°16'0 0.3
2017-Sep-24 23:00N 33°45' W 118°17'0 0.0
2017-Sep-24 22:30N 33°45' W 118°17'0 0.0
2017-Sep-24 21:57N 33°45' W 118°17'0 0.0
2017-Sep-24 21:29N 33°45' W 118°17'0 0.0
2017-Sep-24 20:59N 33°45' W 118°17'0 0.0
2017-Sep-24 20:29N 33°45' W 118°17'0 0.0
2017-Sep-24 19:59N 33°45' W 118°17'0 0.0
2017-Sep-24 19:28N 33°45' W 118°17'0 0.0
2017-Sep-24 18:58N 33°45' W 118°17'0 0.0
2017-Sep-24 18:19N 33°45' W 118°17'0 0.0
2017-Sep-24 18:00N 33°45' W 118°17'0 0.0
2017-Sep-24 17:28N 33°45' W 118°17'0 0.0
2017-Sep-24 17:00N 33°45' W 118°17'0 0.0
2017-Sep-24 16:30N 33°45' W 118°17'0 0.0
2017-Sep-24 16:00N 33°45' W 118°17'0 0.0
2017-Sep-24 15:30N 33°45' W 118°17'0 0.0
2017-Sep-24 15:00N 33°45' W 118°17'0 0.0
2017-Sep-24 14:29N 33°45' W 118°17'0 0.0
2017-Sep-24 13:59N 33°45' W 118°17'0 0.0
2017-Sep-24 13:30N 33°45' W 118°17'0 0.3
2017-Sep-24 13:00N 33°45' W 118°16'1 2.3
2017-Sep-24 12:30N 33°44' W 118°16'4 7.7
2017-Sep-24 12:00N 33°40' W 118°14'4 8.8
2017-Sep-24 11:30N 33°36' W 118°15'510.9
2017-Sep-24 11:00N 33°36' W 118°21'510.3
2017-Sep-24 10:30N 33°39' W 118°27'510.2
2017-Sep-24 10:00N 33°41' W 118°32'510.0
2017-Sep-24 09:30N 33°44' W 118°37'510.1
2017-Sep-24 09:00N 33°47' W 118°43'72589.5
2017-Sep-24 09:00N 33°42' W 118°36'1224.9 320 / 61007.0 20.0 15.0
2017-Sep-24 08:30N 33°49' W 118°48'510.0
2017-Sep-24 08:00N 33°52' W 118°53'5 9.9
2017-Sep-24 07:30N 33°54' W 118°58'510.2
2017-Sep-24 07:00N 33°57' W 119°03'510.2
2017-Sep-24 06:30N 33°59' W 119°09'510.1
2017-Sep-24 06:00N 34°02' W 119°14'510.1
2017-Sep-24 05:30N 34°03' W 119°20'510.6
2017-Sep-24 05:00N 34°05' W 119°26'510.7
2017-Sep-24 04:30N 34°06' W 119°32'510.7
2017-Sep-24 04:00N 34°08' W 119°38'510.8
2017-Sep-24 03:30N 34°09' W 119°45'5 9.9
2017-Sep-24 03:00N 34°14' W 119°44'510.3
2017-Sep-24 02:30N 34°19' W 119°42'5 9.6
2017-Sep-24 02:00N 34°24' W 119°41'7 6.9
2017-Sep-24 01:00N 34°18' W 119°36'730.4 250 / 121005.0 5.4 21.0
2017-Sep-24 00:45N 34°24' W 119°41'0 0.0
2017-Sep-24 00:21N 34°24' W 119°41'0 0.0
2017-Sep-23 23:57N 34°24' W 119°41'0 0.0
2017-Sep-23 23:03N 34°24' W 119°41'0 0.0
2017-Sep-23 23:00N 34°24' W 119°41'0 0.1
2017-Sep-23 22:26N 34°24' W 119°41'0 0.0
2017-Sep-23 21:59N 34°24' W 119°41'0 0.0
2017-Sep-23 21:29N 34°24' W 119°41'0 0.1
2017-Sep-23 20:50N 34°24' W 119°41'0 0.0
2017-Sep-23 20:29N 34°24' W 119°41'0 0.0
2017-Sep-23 19:58N 34°24' W 119°41'36 4.5
2017-Sep-23 12:00N 34°18' W 120°24'5313.4 320 / 171006.0 5.4 15.0
2017-Sep-23 08:00N 34°54' W 121°12'10613.3 170 / 151008.0 22.0 19.0
2017-Sep-23 00:00N 36°36' W 121°48'14 1.2 310 / 131008.0 5.4 18.0
2017-Sep-22 12:00N 36°36' W 122°06'5313.2 040 / 111009.0 5.4 15.0
2017-Sep-22 08:00N 37°06' W 123°00'51 8.5 300 / 151010.0 22.0 15.0
2017-Sep-22 01:58N 37°48' W 122°24'0 0.0
2017-Sep-22 01:30N 37°48' W 122°24'0 0.0
2017-Sep-22 01:00N 37°48' W 122°24'0 0.0
2017-Sep-22 00:30N 37°48' W 122°24'0 0.0
2017-Sep-21 23:58N 37°48' W 122°24'0 0.1
2017-Sep-21 23:28N 37°48' W 122°24'0 0.0
2017-Sep-21 22:58N 37°48' W 122°24'0 0.0
2017-Sep-21 22:30N 37°48' W 122°24'0 0.0
2017-Sep-21 22:00N 37°48' W 122°24'0 0.0
2017-Sep-21 21:30N 37°48' W 122°24'0 0.0
2017-Sep-21 21:00N 37°48' W 122°24'0 0.1
2017-Sep-21 20:29N 37°48' W 122°24'0 0.0
2017-Sep-21 19:59N 37°48' W 122°24'0 0.0
2017-Sep-21 19:29N 37°48' W 122°24'0 0.0
2017-Sep-21 18:58N 37°48' W 122°24'0 0.0
2017-Sep-21 18:31N 37°48' W 122°24'0 0.0
2017-Sep-21 18:00N 37°48' W 122°24'0 0.0
2017-Sep-21 17:30N 37°48' W 122°24'0 0.0
2017-Sep-21 17:00N 37°48' W 122°24'0 0.0
2017-Sep-21 16:30N 37°48' W 122°24'0 0.0
2017-Sep-21 16:00N 37°48' W 122°24'0 0.0
2017-Sep-21 15:29N 37°48' W 122°24'0 0.0
2017-Sep-21 15:00N 37°48' W 122°24'0 0.0
2017-Sep-21 14:30N 37°48' W 122°24'1 1.5
2017-Sep-21 14:00N 37°49' W 122°25'5 9.2
2017-Sep-21 13:31N 37°48' W 122°30'713.0
2017-Sep-21 13:00N 37°46' W 122°38'5 9.7
2017-Sep-21 12:30N 37°45' W 122°44'510.0
2017-Sep-21 12:00N 37°48' W 122°49'5 9.8
2017-Sep-21 11:31N 37°50' W 122°55'5 9.8
2017-Sep-21 11:00N 37°53' W 123°00'7470.1
2017-Sep-21 11:00N 37°48' W 122°54'1224.2 350 / 211007.0 5.4 15.0
2017-Sep-21 10:30N 37°55' W 123°06'510.0
2017-Sep-21 10:00N 37°58' W 123°11'510.0
2017-Sep-21 09:30N 38°02' W 123°15'510.5
2017-Sep-21 09:00N 38°06' W 123°19'611.6
2017-Sep-21 08:30N 38°10' W 123°24'816.2
2017-Sep-21 08:00N 38°17' W 123°31'12831.2
2017-Sep-21 08:00N 38°06' W 123°24'2040.9 340 / 171009.0 20.0 16.0
2017-Sep-21 07:30N 38°24' W 123°36'816.3
2017-Sep-21 07:00N 38°31' W 123°40'816.7
2017-Sep-21 06:30N 38°38' W 123°46'917.2
2017-Sep-21 06:00N 38°45' W 123°52'6015.0
2017-Sep-21 02:00N 39°42' W 124°18'25318.0 350 / 211009.0 5.4 15.0
2017-Sep-20 12:00N 43°54' W 124°42'3718.5 260 / 251004.0 5.4 15.0
2017-Sep-20 10:00N 44°30' W 124°30'4515.3 270 / 411000.0 18.0 14.0
2017-Sep-20 07:02N 45°15' W 124°24'117.1
2017-Sep-20 07:00N 45°16' W 124°24'917.8
2017-Sep-20 06:30N 45°24' W 124°22'917.8
2017-Sep-20 06:00N 45°33' W 124°20'917.4
2017-Sep-20 05:30N 45°42' W 124°17'917.1
2017-Sep-20 05:00N 45°50' W 124°15'917.6
2017-Sep-20 04:30N 45°59' W 124°14'917.6
2017-Sep-20 04:00N 46°07' W 124°13'714.0
2017-Sep-20 03:30N 46°14' W 124°08'612.0
2017-Sep-20 03:00N 46°14' W 123°59'611.3
2017-Sep-20 02:31N 46°12' W 123°52'0 0.7
2017-Sep-20 01:53N 46°11' W 123°51'0 0.0
2017-Sep-20 01:28N 46°11' W 123°51'612.4
2017-Sep-20 01:00N 46°06' W 123°48'681.8 190 / 141005.0 5.4 18.0
2017-Sep-20 00:55N 46°11' W 123°51'0 0.0
2017-Sep-20 00:28N 46°11' W 123°51'0 0.0
2017-Sep-19 23:58N 46°11' W 123°51'0 0.0
2017-Sep-19 23:24N 46°11' W 123°51'0 0.0
2017-Sep-19 23:00N 46°11' W 123°51'0 0.0
2017-Sep-19 22:30N 46°11' W 123°51'0 0.0
2017-Sep-19 22:00N 46°11' W 123°51'0 0.0
2017-Sep-19 21:24N 46°11' W 123°51'0 0.0
2017-Sep-19 20:56N 46°11' W 123°51'0 0.0
2017-Sep-19 20:29N 46°11' W 123°51'0 0.0
2017-Sep-19 19:59N 46°11' W 123°51'0 0.0
2017-Sep-19 19:29N 46°11' W 123°51'0 0.0
2017-Sep-19 18:59N 46°11' W 123°51'0 0.0
2017-Sep-19 18:25N 46°11' W 123°51'0 0.0
2017-Sep-19 17:55N 46°11' W 123°51'0 0.0
2017-Sep-19 17:30N 46°11' W 123°51'2 4.6
2017-Sep-19 17:00N 46°11' W 123°55'611.8
2017-Sep-19 16:30N 46°15' W 124°01'714.0
2017-Sep-19 16:00N 46°12' W 124°10'4 8.8
2017-Sep-19 15:31N 46°14' W 124°16'713.4
2017-Sep-19 15:00N 46°20' W 124°21'815.4
2017-Sep-19 14:30N 46°26' W 124°27'815.2
2017-Sep-19 14:00N 46°32' W 124°34'815.8
2017-Sep-19 13:30N 46°39' W 124°39'2315.2
2017-Sep-19 12:00N 47°00' W 124°54'5518.5 350 / 261000.0 5.4 18.0
2017-Sep-19 09:00N 47°54' W 125°12'913.7 250 / 10999.0 20.0 15.0
2017-Sep-19 08:22N 48°02' W 125°14'818.4
2017-Sep-19 07:55N 48°11' W 125°12'718.2
2017-Sep-19 07:30N 48°18' W 125°10'918.1
2017-Sep-19 07:00N 48°27' W 125°06'816.4
2017-Sep-19 06:30N 48°31' W 124°55'917.8
2017-Sep-19 06:01N 48°30' W 124°42'1019.5
2017-Sep-19 05:30N 48°26' W 124°28'1020.0
2017-Sep-19 05:01N 48°22' W 124°14'1020.3
2017-Sep-19 04:30N 48°18' W 124°00'1120.7
2017-Sep-19 03:59N 48°16' W 123°44'1021.0
2017-Sep-19 03:31N 48°15' W 123°29'815.0
2017-Sep-19 02:59N 48°09' W 123°22'815.7
2017-Sep-19 02:31N 48°11' W 123°11'1019.7
2017-Sep-19 02:00N 48°12' W 122°56'1019.9
2017-Sep-19 01:30N 48°09' W 122°42'1019.5
2017-Sep-19 01:00N 48°00' W 122°36'919.1
2017-Sep-19 00:31N 47°52' W 122°28'1019.4
2017-Sep-19 00:01N 47°43' W 122°27'713.8
2017-Sep-18 23:30N 47°37' W 122°22'0 0.7
2017-Sep-18 22:58N 47°37' W 122°21'0 0.0
2017-Sep-18 22:28N 47°37' W 122°21'0 0.0
2017-Sep-18 21:58N 47°37' W 122°21'0 0.0
2017-Sep-18 21:30N 47°37' W 122°21'0 0.0
2017-Sep-18 21:00N 47°37' W 122°21'0 0.0
2017-Sep-18 20:30N 47°37' W 122°21'0 0.0
2017-Sep-18 20:00N 47°37' W 122°21'0 0.0
2017-Sep-18 19:30N 47°37' W 122°21'0 0.0
2017-Sep-18 19:00N 47°37' W 122°21'0 0.0
2017-Sep-18 18:30N 47°37' W 122°21'0 0.0
2017-Sep-18 17:59N 47°37' W 122°21'0 0.0
2017-Sep-18 17:29N 47°37' W 122°21'0 0.0
2017-Sep-18 16:59N 47°37' W 122°21'0 0.0
2017-Sep-18 16:29N 47°37' W 122°21'0 0.0
2017-Sep-18 15:59N 47°37' W 122°21'0 0.0
2017-Sep-18 15:29N 47°37' W 122°21'0 0.0
2017-Sep-18 14:58N 47°37' W 122°21'0 0.0
2017-Sep-18 14:28N 47°37' W 122°21'2 4.7
2017-Sep-18 14:00N 47°36' W 122°18'266.6 130 / 81005.0 5.4 18.0
2017-Sep-18 13:58N 47°37' W 122°21'0 0.0
2017-Sep-18 13:30N 47°37' W 122°21'1 1.2
2017-Sep-18 13:00N 47°37' W 122°22'611.0
2017-Sep-18 12:30N 47°40' W 122°28'612.8
2017-Sep-18 12:00N 47°47' W 122°27'611.8
2017-Sep-18 11:30N 47°52' W 122°29'510.7
2017-Sep-18 11:00N 47°57' W 122°33'510.2
2017-Sep-18 10:30N 48°01' W 122°38'6 9.9
2017-Sep-18 09:52N 48°07' W 122°41'411.5
2017-Sep-18 09:28N 48°10' W 122°46'610.7
2017-Sep-18 08:56N 48°11' W 122°55'410.2
2017-Sep-18 08:30N 48°12' W 123°01'510.2
2017-Sep-18 08:00N 48°12' W 123°09'8537.5
2017-Sep-18 08:00N 48°06' W 123°00'1224.3 150 / 121005.0 20.0 15.0
2017-Sep-18 07:30N 48°11' W 123°16'5 9.9
2017-Sep-18 07:00N 48°10' W 123°24'611.9
2017-Sep-18 06:30N 48°14' W 123°30'713.7
2017-Sep-18 06:00N 48°20' W 123°27'510.2
2017-Sep-18 05:31N 48°23' W 123°21'612.0
2017-Sep-18 05:01N 48°25' W 123°12'612.5
2017-Sep-18 04:30N 48°31' W 123°13'612.8
2017-Sep-18 04:01N 48°38' W 123°14'612.5
2017-Sep-18 03:30N 48°43' W 123°11'816.9
2017-Sep-18 03:01N 48°48' W 123°00'917.8
2017-Sep-18 02:31N 48°55' W 123°10'1019.7
2017-Sep-18 02:00N 49°01' W 123°21'9785.7
2017-Sep-18 02:00N 48°54' W 123°12'1735.8 140 / 181000.0 5.4 15.0
2017-Sep-18 01:30N 49°10' W 123°23'816.2
2017-Sep-18 01:00N 49°18' W 123°20'1 2.6
2017-Sep-18 00:30N 49°19' W 123°19'1 1.9
2017-Sep-18 00:00N 49°19' W 123°18'713.1
2017-Sep-17 23:30N 49°19' W 123°08'2 3.4
2017-Sep-17 22:59N 49°17' W 123°07'0 0.0
2017-Sep-17 22:29N 49°17' W 123°07'0 0.0
2017-Sep-17 21:59N 49°17' W 123°07'0 0.0
2017-Sep-17 21:29N 49°17' W 123°07'510.9
2017-Sep-17 21:00N 49°12' W 123°06'5318.6 110 / 151002.0 19.0 15.0
2017-Sep-17 20:59N 49°17' W 123°07'0 0.0
2017-Sep-17 20:28N 49°17' W 123°07'0 0.0
2017-Sep-17 19:58N 49°17' W 123°07'0 0.0
2017-Sep-17 19:28N 49°17' W 123°07'0 0.0
2017-Sep-17 18:58N 49°17' W 123°07'0 0.0
2017-Sep-17 18:30N 49°17' W 123°07'0 0.0
2017-Sep-17 18:00N 49°17' W 123°07'0 0.0
2017-Sep-17 17:30N 49°17' W 123°07'0 0.0
2017-Sep-17 17:00N 49°17' W 123°07'0 0.0
2017-Sep-17 16:30N 49°17' W 123°07'0 0.0
2017-Sep-17 15:59N 49°17' W 123°07'0 0.0
2017-Sep-17 15:29N 49°17' W 123°07'0 0.0
2017-Sep-17 14:59N 49°17' W 123°07'0 0.0
2017-Sep-17 14:29N 49°17' W 123°07'0 0.0
2017-Sep-17 14:00N 49°17' W 123°07'1 1.3
2017-Sep-17 13:30N 49°18' W 123°06'5 9.3
2017-Sep-17 13:00N 49°19' W 123°13'612.4
2017-Sep-17 12:30N 49°19' W 123°23'612.7
2017-Sep-17 12:00N 49°19' W 123°33'612.9
2017-Sep-17 11:30N 49°20' W 123°42'612.7
2017-Sep-17 11:00N 49°22' W 123°51'7490.3
2017-Sep-17 11:00N 49°18' W 123°42'1327.7 150 / 131015.0 5.4 14.0
2017-Sep-17 10:30N 49°23' W 124°01'612.6
2017-Sep-17 10:00N 49°24' W 124°11'612.7
2017-Sep-17 09:30N 49°26' W 124°20'612.8
2017-Sep-17 09:00N 49°29' W 124°28'612.9
2017-Sep-17 08:30N 49°34' W 124°35'612.8
2017-Sep-17 08:00N 49°39' W 124°42'5316.3
2017-Sep-17 08:00N 49°36' W 124°36'1122.4 140 / 251006.0 22.0 16.0
2017-Sep-17 07:30N 49°43' W 124°48'612.7
2017-Sep-17 07:00N 49°48' W 124°55'612.8
2017-Sep-17 06:30N 49°53' W 125°02'612.7
2017-Sep-17 06:00N 49°57' W 125°09'712.9
2017-Sep-17 05:30N 50°03' W 125°14'612.8
2017-Sep-17 05:01N 50°07' W 125°21'815.2
2017-Sep-17 04:30N 50°15' W 125°23'814.4
2017-Sep-17 03:58N 50°21' W 125°31'2416.5
2017-Sep-17 02:31N 50°28' W 126°07'020.2
2017-Sep-17 02:30N 50°28' W 126°07'1119.0
2017-Sep-17 01:56N 50°30' W 126°24'818.7
2017-Sep-17 01:29N 50°31' W 126°37'1316.0
2017-Sep-17 00:42N 50°40' W 126°51'420.1
2017-Sep-17 00:29N 50°42' W 126°57'2 3.6
2017-Sep-17 00:00N 50°42' W 126°54'113398.2 270 / 71010.0 5.4 16.0
2017-Sep-16 23:59N 50°46' W 127°11'919.3
2017-Sep-16 23:30N 50°49' W 127°24'1019.0
2017-Sep-16 23:00N 50°54' W 127°38'816.5
2017-Sep-16 22:30N 50°59' W 127°48'714.5
2017-Sep-16 22:00N 51°03' W 127°57'918.2
2017-Sep-16 21:30N 51°09' W 128°09'917.8
2017-Sep-16 21:01N 51°14' W 128°21'917.9
2017-Sep-16 20:31N 51°19' W 128°32'918.2
2017-Sep-16 20:01N 51°24' W 128°44'6379.7
2017-Sep-16 20:00N 51°18' W 128°42'1429.5 050 / 91011.0 24.0 16.0
2017-Sep-16 19:30N 51°29' W 128°56'918.3
2017-Sep-16 19:00N 51°35' W 129°08'918.5
2017-Sep-16 18:31N 51°40' W 129°20'1018.1
2017-Sep-16 17:57N 51°47' W 129°32'4018.7
2017-Sep-16 15:49N 52°24' W 129°58'618.6
2017-Sep-16 15:30N 52°29' W 130°02'918.3
2017-Sep-16 14:59N 52°38' W 130°08'1118.5
2017-Sep-16 14:22N 52°48' W 130°15'616.6
2017-Sep-16 14:00N 52°42' W 130°12'3331.0 1012.0 5.4 14.0
2017-Sep-16 12:55N 53°13' W 130°34'818.0
2017-Sep-16 12:29N 53°19' W 130°40'817.2
2017-Sep-16 12:00N 53°27' W 130°46'917.1
2017-Sep-16 11:30N 53°35' W 130°49'917.2
2017-Sep-16 11:00N 53°44' W 130°52'8674.4
2017-Sep-16 11:00N 53°36' W 130°48'1734.9 310 / 141014.0 21.0 11.0
2017-Sep-16 10:30N 53°52' W 130°57'917.9
2017-Sep-16 10:00N 54°00' W 131°02'917.3
2017-Sep-16 09:30N 54°09' W 131°01'816.6
2017-Sep-16 09:01N 54°17' W 131°02'816.3
2017-Sep-16 08:30N 54°25' W 131°09'816.5
2017-Sep-16 08:00N 54°32' W 131°16'916.6
2017-Sep-16 07:28N 54°41' W 131°14'817.3
2017-Sep-16 07:00N 54°48' W 131°10'917.5
2017-Sep-16 06:30N 54°57' W 131°08'  
Track history (hours):
 
Tides and Currents Weather Stations Pressure Air Temp Water Temp Dewpoint Dewpoint Depression Visibility Wind Speed Wind Dir Waves Ship Positions

Celebrity Infinity

Last reported at 2017-Sep-26 05:30 UTC. Time now 2017-Sep-26 05:55 UTC.
Position N 34°44' W 121°06'.

Length 294 m; draft 8.3 m.

Type: Passenger vessel. MMSI: 249048000.

Date/timePositionNaut miles runAvg speedWind from/ knotsBaromVisibWave heightAir tempDewpointWater temp
2017-Sep-26 05:30N 34°44' W 121°06'816.9
2017-Sep-26 05:01N 34°37' W 121°00'917.1
2017-Sep-26 04:28N 34°30' W 120°55'716.0
2017-Sep-26 04:01N 34°25' W 120°47'917.2
2017-Sep-26 03:29N 34°23' W 120°37'917.3
2017-Sep-26 02:59N 34°21' W 120°27'816.9
2017-Sep-26 02:29N 34°18' W 120°17'816.8
2017-Sep-26 02:00N 34°16' W 120°07'121029.5
2017-Sep-26 02:00N 34°12' W 119°54'3 7.1 270 / 181005.0 5.4 23.0
2017-Sep-26 01:30N 34°14' W 119°58'916.3
2017-Sep-26 00:58N 34°12' W 119°47'816.5
2017-Sep-26 00:31N 34°19' W 119°43'5 9.8
2017-Sep-26 00:00N 34°24' W 119°41'0 0.1
2017-Sep-25 23:21N 34°24' W 119°41'0 0.0
2017-Sep-25 22:57N 34°24' W 119°41'0 0.0
2017-Sep-25 22:30N 34°24' W 119°41'0 0.0
2017-Sep-25 18:07N 34°24' W 119°41'0 0.0
2017-Sep-25 17:45N 34°24' W 119°41'0 0.0
2017-Sep-25 17:24N 34°24' W 119°41'0 0.0
2017-Sep-25 16:48N 34°24' W 119°41'0 0.0
2017-Sep-25 14:23N 34°24' W 119°41'0 0.1
2017-Sep-25 13:47N 34°24' W 119°41'0 0.1
2017-Sep-25 13:30N 34°24' W 119°41'0 0.6
2017-Sep-25 13:00N 34°24' W 119°41'3 6.6
2017-Sep-25 12:29N 34°20' W 119°40'4 7.3
2017-Sep-25 12:00N 34°17' W 119°39'5596.5
2017-Sep-25 12:00N 34°12' W 119°36'2 4.9 350 / 41006.0 5.4 15.0
2017-Sep-25 11:30N 34°13' W 119°39'4 7.0
2017-Sep-25 11:00N 34°10' W 119°37'3 6.7
2017-Sep-25 10:30N 34°09' W 119°33'4 6.8
2017-Sep-25 09:55N 34°08' W 119°29'3 6.0
2017-Sep-25 09:28N 34°07' W 119°26'3 6.1
2017-Sep-25 08:59N 34°06' W 119°22'3 6.2
2017-Sep-25 08:30N 34°05' W 119°19'3 6.5
2017-Sep-25 08:00N 34°04' W 119°15'5393.7
2017-Sep-25 08:00N 34°00' W 119°12'3 5.3 120 / 41008.0 20.0 15.0
2017-Sep-25 07:30N 34°03' W 119°11'4 7.4
2017-Sep-25 07:00N 34°01' W 119°07'4 7.2
2017-Sep-25 06:29N 33°59' W 119°03'4 7.5
2017-Sep-25 06:00N 33°57' W 118°60'4 7.4
2017-Sep-25 05:30N 33°55' W 118°56'4 7.4
2017-Sep-25 05:00N 33°53' W 118°52'4 7.2
2017-Sep-25 04:30N 33°51' W 118°48'4 7.2
2017-Sep-25 04:00N 33°50' W 118°44'4 7.2
2017-Sep-25 03:30N 33°48' W 118°41'3 6.9
2017-Sep-25 03:00N 33°46' W 118°37'3 6.9
2017-Sep-25 02:30N 33°44' W 118°33'4 7.0
2017-Sep-25 02:00N 33°43' W 118°30'5332.2
2017-Sep-25 02:00N 33°42' W 118°24'2 4.3 250 / 211006.0 5.4 18.0
2017-Sep-25 01:30N 33°41' W 118°26'510.9
2017-Sep-25 01:00N 33°39' W 118°20'4 7.5
2017-Sep-25 00:30N 33°39' W 118°16'3 6.7
2017-Sep-25 00:01N 33°43' W 118°15'2 4.8
2017-Sep-24 23:30N 33°45' W 118°16'0 0.3
2017-Sep-24 23:00N 33°45' W 118°17'0 0.0
2017-Sep-24 22:30N 33°45' W 118°17'0 0.0
2017-Sep-24 21:57N 33°45' W 118°17'0 0.0
2017-Sep-24 21:29N 33°45' W 118°17'0 0.0
2017-Sep-24 20:59N 33°45' W 118°17'0 0.0
2017-Sep-24 20:29N 33°45' W 118°17'0 0.0
2017-Sep-24 19:59N 33°45' W 118°17'0 0.0
2017-Sep-24 19:28N 33°45' W 118°17'0 0.0
2017-Sep-24 18:58N 33°45' W 118°17'0 0.0
2017-Sep-24 18:19N 33°45' W 118°17'0 0.0
2017-Sep-24 18:00N 33°45' W 118°17'0 0.0
2017-Sep-24 17:28N 33°45' W 118°17'0 0.0
2017-Sep-24 17:00N 33°45' W 118°17'0 0.0
2017-Sep-24 16:30N 33°45' W 118°17'0 0.0
2017-Sep-24 16:00N 33°45' W 118°17'0 0.0
2017-Sep-24 15:30N 33°45' W 118°17'0 0.0
2017-Sep-24 15:00N 33°45' W 118°17'0 0.0
2017-Sep-24 14:29N 33°45' W 118°17'0 0.0
2017-Sep-24 13:59N 33°45' W 118°17'0 0.0
2017-Sep-24 13:30N 33°45' W 118°17'0 0.3
2017-Sep-24 13:00N 33°45' W 118°16'1 2.3
2017-Sep-24 12:30N 33°44' W 118°16'4 7.7
2017-Sep-24 12:00N 33°40' W 118°14'4 8.8
2017-Sep-24 11:30N 33°36' W 118°15'510.9
2017-Sep-24 11:00N 33°36' W 118°21'510.3
2017-Sep-24 10:30N 33°39' W 118°27'510.2
2017-Sep-24 10:00N 33°41' W 118°32'510.0
2017-Sep-24 09:30N 33°44' W 118°37'510.1
2017-Sep-24 09:00N 33°47' W 118°43'72589.5
2017-Sep-24 09:00N 33°42' W 118°36'1224.9 320 / 61007.0 20.0 15.0
2017-Sep-24 08:30N 33°49' W 118°48'510.0
2017-Sep-24 08:00N 33°52' W 118°53'5 9.9
2017-Sep-24 07:30N 33°54' W 118°58'510.2
2017-Sep-24 07:00N 33°57' W 119°03'510.2
2017-Sep-24 06:30N 33°59' W 119°09'510.1
2017-Sep-24 06:00N 34°02' W 119°14'510.1
2017-Sep-24 05:30N 34°03' W 119°20'510.6
2017-Sep-24 05:00N 34°05' W 119°26'510.7
2017-Sep-24 04:30N 34°06' W 119°32'510.7
2017-Sep-24 04:00N 34°08' W 119°38'510.8
2017-Sep-24 03:30N 34°09' W 119°45'5 9.9
2017-Sep-24 03:00N 34°14' W 119°44'510.3
2017-Sep-24 02:30N 34°19' W 119°42'5 9.6
2017-Sep-24 02:00N 34°24' W 119°41'7 6.9
2017-Sep-24 01:00N 34°18' W 119°36'730.4 250 / 121005.0 5.4 21.0
2017-Sep-24 00:45N 34°24' W 119°41'0 0.0
2017-Sep-24 00:21N 34°24' W 119°41'0 0.0
2017-Sep-23 23:57N 34°24' W 119°41'0 0.0
2017-Sep-23 23:03N 34°24' W 119°41'0 0.0
2017-Sep-23 23:00N 34°24' W 119°41'0 0.1
2017-Sep-23 22:26N 34°24' W 119°41'0 0.0
2017-Sep-23 21:59N 34°24' W 119°41'0 0.0
2017-Sep-23 21:29N 34°24' W 119°41'0 0.1
2017-Sep-23 20:50N 34°24' W 119°41'0 0.0
2017-Sep-23 20:29N 34°24' W 119°41'0 0.0
2017-Sep-23 19:58N 34°24' W 119°41'36 4.5
2017-Sep-23 12:00N 34°18' W 120°24'5313.4 320 / 171006.0 5.4 15.0
2017-Sep-23 08:00N 34°54' W 121°12'10613.3 170 / 151008.0 22.0 19.0
2017-Sep-23 00:00N 36°36' W 121°48'14 1.2 310 / 131008.0 5.4 18.0
2017-Sep-22 12:00N 36°36' W 122°06'5313.2 040 / 111009.0 5.4 15.0
2017-Sep-22 08:00N 37°06' W 123°00'51 8.5 300 / 151010.0 22.0 15.0
2017-Sep-22 01:58N 37°48' W 122°24'0 0.0
2017-Sep-22 01:30N 37°48' W 122°24'0 0.0
2017-Sep-22 01:00N 37°48' W 122°24'0 0.0
2017-Sep-22 00:30N 37°48' W 122°24'0 0.0
2017-Sep-21 23:58N 37°48' W 122°24'0 0.1
2017-Sep-21 23:28N 37°48' W 122°24'0 0.0
2017-Sep-21 22:58N 37°48' W 122°24'0 0.0
2017-Sep-21 22:30N 37°48' W 122°24'0 0.0
2017-Sep-21 22:00N 37°48' W 122°24'0 0.0
2017-Sep-21 21:30N 37°48' W 122°24'0 0.0
2017-Sep-21 21:00N 37°48' W 122°24'0 0.1
2017-Sep-21 20:29N 37°48' W 122°24'0 0.0
2017-Sep-21 19:59N 37°48' W 122°24'0 0.0
2017-Sep-21 19:29N 37°48' W 122°24'0 0.0
2017-Sep-21 18:58N 37°48' W 122°24'0 0.0
2017-Sep-21 18:31N 37°48' W 122°24'0 0.0
2017-Sep-21 18:00N 37°48' W 122°24'0 0.0
2017-Sep-21 17:30N 37°48' W 122°24'0 0.0
2017-Sep-21 17:00N 37°48' W 122°24'0 0.0
2017-Sep-21 16:30N 37°48' W 122°24'0 0.0
2017-Sep-21 16:00N 37°48' W 122°24'0 0.0
2017-Sep-21 15:29N 37°48' W 122°24'0 0.0
2017-Sep-21 15:00N 37°48' W 122°24'0 0.0
2017-Sep-21 14:30N 37°48' W 122°24'1 1.5
2017-Sep-21 14:00N 37°49' W 122°25'5 9.2
2017-Sep-21 13:31N 37°48' W 122°30'713.0
2017-Sep-21 13:00N 37°46' W 122°38'5 9.7
2017-Sep-21 12:30N 37°45' W 122°44'510.0
2017-Sep-21 12:00N 37°48' W 122°49'5 9.8
2017-Sep-21 11:31N 37°50' W 122°55'5 9.8
2017-Sep-21 11:00N 37°53' W 123°00'7470.1
2017-Sep-21 11:00N 37°48' W 122°54'1224.2 350 / 211007.0 5.4 15.0
2017-Sep-21 10:30N 37°55' W 123°06'510.0
2017-Sep-21 10:00N 37°58' W 123°11'510.0
2017-Sep-21 09:30N 38°02' W 123°15'510.5
2017-Sep-21 09:00N 38°06' W 123°19'611.6
2017-Sep-21 08:30N 38°10' W 123°24'816.2
2017-Sep-21 08:00N 38°17' W 123°31'12831.2
2017-Sep-21 08:00N 38°06' W 123°24'2040.9 340 / 171009.0 20.0 16.0
2017-Sep-21 07:30N 38°24' W 123°36'816.3
2017-Sep-21 07:00N 38°31' W 123°40'816.7
2017-Sep-21 06:30N 38°38' W 123°46'917.2
2017-Sep-21 06:00N 38°45' W 123°52'6015.0
2017-Sep-21 02:00N 39°42' W 124°18'25318.0 350 / 211009.0 5.4 15.0
2017-Sep-20 12:00N 43°54' W 124°42'3718.5 260 / 251004.0 5.4 15.0
2017-Sep-20 10:00N 44°30' W 124°30'4515.3 270 / 411000.0 18.0 14.0
2017-Sep-20 07:02N 45°15' W 124°24'117.1
2017-Sep-20 07:00N 45°16' W 124°24'917.8
2017-Sep-20 06:30N 45°24' W 124°22'917.8
2017-Sep-20 06:00N 45°33' W 124°20'917.4
2017-Sep-20 05:30N 45°42' W 124°17'917.1
2017-Sep-20 05:00N 45°50' W 124°15'917.6
2017-Sep-20 04:30N 45°59' W 124°14'917.6
2017-Sep-20 04:00N 46°07' W 124°13'714.0
2017-Sep-20 03:30N 46°14' W 124°08'612.0
2017-Sep-20 03:00N 46°14' W 123°59'611.3
2017-Sep-20 02:31N 46°12' W 123°52'0 0.7
2017-Sep-20 01:53N 46°11' W 123°51'0 0.0
2017-Sep-20 01:28N 46°11' W 123°51'612.4
2017-Sep-20 01:00N 46°06' W 123°48'681.8 190 / 141005.0 5.4 18.0
2017-Sep-20 00:55N 46°11' W 123°51'0 0.0
2017-Sep-20 00:28N 46°11' W 123°51'0 0.0
2017-Sep-19 23:58N 46°11' W 123°51'0 0.0
2017-Sep-19 23:24N 46°11' W 123°51'0 0.0
2017-Sep-19 23:00N 46°11' W 123°51'0 0.0
2017-Sep-19 22:30N 46°11' W 123°51'0 0.0
2017-Sep-19 22:00N 46°11' W 123°51'0 0.0
2017-Sep-19 21:24N 46°11' W 123°51'0 0.0
2017-Sep-19 20:56N 46°11' W 123°51'0 0.0
2017-Sep-19 20:29N 46°11' W 123°51'0 0.0
2017-Sep-19 19:59N 46°11' W 123°51'0 0.0
2017-Sep-19 19:29N 46°11' W 123°51'0 0.0
2017-Sep-19 18:59N 46°11' W 123°51'0 0.0
2017-Sep-19 18:25N 46°11' W 123°51'0 0.0
2017-Sep-19 17:55N 46°11' W 123°51'0 0.0
2017-Sep-19 17:30N 46°11' W 123°51'2 4.6
2017-Sep-19 17:00N 46°11' W 123°55'611.8
2017-Sep-19 16:30N 46°15' W 124°01'714.0
2017-Sep-19 16:00N 46°12' W 124°10'4 8.8
2017-Sep-19 15:31N 46°14' W 124°16'713.4
2017-Sep-19 15:00N 46°20' W 124°21'815.4
2017-Sep-19 14:30N 46°26' W 124°27'815.2
2017-Sep-19 14:00N 46°32' W 124°34'815.8
2017-Sep-19 13:30N 46°39' W 124°39'2315.2
2017-Sep-19 12:00N 47°00' W 124°54'5518.5 350 / 261000.0 5.4 18.0
2017-Sep-19 09:00N 47°54' W 125°12'913.7 250 / 10999.0 20.0 15.0
2017-Sep-19 08:22N 48°02' W 125°14'818.4
2017-Sep-19 07:55N 48°11' W 125°12'718.2
2017-Sep-19 07:30N 48°18' W 125°10'918.1
2017-Sep-19 07:00N 48°27' W 125°06'816.4
2017-Sep-19 06:30N 48°31' W 124°55'917.8
2017-Sep-19 06:01N 48°30' W 124°42'1019.5
2017-Sep-19 05:30N 48°26' W 124°28'1020.0
2017-Sep-19 05:01N 48°22' W 124°14'1020.3
2017-Sep-19 04:30N 48°18' W 124°00'1120.7
2017-Sep-19 03:59N 48°16' W 123°44'1021.0
2017-Sep-19 03:31N 48°15' W 123°29'815.0
2017-Sep-19 02:59N 48°09' W 123°22'815.7
2017-Sep-19 02:31N 48°11' W 123°11'1019.7
2017-Sep-19 02:00N 48°12' W 122°56'1019.9
2017-Sep-19 01:30N 48°09' W 122°42'1019.5
2017-Sep-19 01:00N 48°00' W 122°36'919.1
2017-Sep-19 00:31N 47°52' W 122°28'1019.4
2017-Sep-19 00:01N 47°43' W 122°27'713.8
2017-Sep-18 23:30N 47°37' W 122°22'0 0.7
2017-Sep-18 22:58N 47°37' W 122°21'0 0.0
2017-Sep-18 22:28N 47°37' W 122°21'0 0.0
2017-Sep-18 21:58N 47°37' W 122°21'0 0.0
2017-Sep-18 21:30N 47°37' W 122°21'0 0.0
2017-Sep-18 21:00N 47°37' W 122°21'0 0.0
2017-Sep-18 20:30N 47°37' W 122°21'0 0.0
2017-Sep-18 20:00N 47°37' W 122°21'0 0.0
2017-Sep-18 19:30N 47°37' W 122°21'0 0.0
2017-Sep-18 19:00N 47°37' W 122°21'0 0.0
2017-Sep-18 18:30N 47°37' W 122°21'0 0.0
2017-Sep-18 17:59N 47°37' W 122°21'0 0.0
2017-Sep-18 17:29N 47°37' W 122°21'0 0.0
2017-Sep-18 16:59N 47°37' W 122°21'0 0.0
2017-Sep-18 16:29N 47°37' W 122°21'0 0.0
2017-Sep-18 15:59N 47°37' W 122°21'0 0.0
2017-Sep-18 15:29N 47°37' W 122°21'0 0.0
2017-Sep-18 14:58N 47°37' W 122°21'0 0.0
2017-Sep-18 14:28N 47°37' W 122°21'2 4.7
2017-Sep-18 14:00N 47°36' W 122°18'266.6 130 / 81005.0 5.4 18.0
2017-Sep-18 13:58N 47°37' W 122°21'0 0.0
2017-Sep-18 13:30N 47°37' W 122°21'1 1.2
2017-Sep-18 13:00N 47°37' W 122°22'611.0
2017-Sep-18 12:30N 47°40' W 122°28'612.8
2017-Sep-18 12:00N 47°47' W 122°27'611.8
2017-Sep-18 11:30N 47°52' W 122°29'510.7
2017-Sep-18 11:00N 47°57' W 122°33'510.2
2017-Sep-18 10:30N 48°01' W 122°38'6 9.9
2017-Sep-18 09:52N 48°07' W 122°41'411.5
2017-Sep-18 09:28N 48°10' W 122°46'610.7
2017-Sep-18 08:56N 48°11' W 122°55'410.2
2017-Sep-18 08:30N 48°12' W 123°01'510.2
2017-Sep-18 08:00N 48°12' W 123°09'8537.5
2017-Sep-18 08:00N 48°06' W 123°00'1224.3 150 / 121005.0 20.0 15.0
2017-Sep-18 07:30N 48°11' W 123°16'5 9.9
2017-Sep-18 07:00N 48°10' W 123°24'611.9
2017-Sep-18 06:30N 48°14' W 123°30'713.7
2017-Sep-18 06:00N 48°20' W 123°27'510.2
2017-Sep-18 05:31N 48°23' W 123°21'612.0
2017-Sep-18 05:01N 48°25' W 123°12'612.5
2017-Sep-18 04:30N 48°31' W 123°13'612.8
2017-Sep-18 04:01N 48°38' W 123°14'612.5
2017-Sep-18 03:30N 48°43' W 123°11'816.9
2017-Sep-18 03:01N 48°48' W 123°00'917.8
2017-Sep-18 02:31N 48°55' W 123°10'1019.7
2017-Sep-18 02:00N 49°01' W 123°21'9785.7
2017-Sep-18 02:00N 48°54' W 123°12'1735.8 140 / 181000.0 5.4 15.0
2017-Sep-18 01:30N 49°10' W 123°23'816.2
2017-Sep-18 01:00N 49°18' W 123°20'1 2.6
2017-Sep-18 00:30N 49°19' W 123°19'1 1.9
2017-Sep-18 00:00N 49°19' W 123°18'713.1
2017-Sep-17 23:30N 49°19' W 123°08'2 3.4
2017-Sep-17 22:59N 49°17' W 123°07'0 0.0
2017-Sep-17 22:29N 49°17' W 123°07'0 0.0
2017-Sep-17 21:59N 49°17' W 123°07'0 0.0
2017-Sep-17 21:29N 49°17' W 123°07'510.9
2017-Sep-17 21:00N 49°12' W 123°06'5318.6 110 / 151002.0 19.0 15.0
2017-Sep-17 20:59N 49°17' W 123°07'0 0.0
2017-Sep-17 20:28N 49°17' W 123°07'0 0.0
2017-Sep-17 19:58N 49°17' W 123°07'0 0.0
2017-Sep-17 19:28N 49°17' W 123°07'0 0.0
2017-Sep-17 18:58N 49°17' W 123°07'0 0.0
2017-Sep-17 18:30N 49°17' W 123°07'0 0.0
2017-Sep-17 18:00N 49°17' W 123°07'0 0.0
2017-Sep-17 17:30N 49°17' W 123°07'0 0.0
2017-Sep-17 17:00N 49°17' W 123°07'0 0.0
2017-Sep-17 16:30N 49°17' W 123°07'0 0.0
2017-Sep-17 15:59N 49°17' W 123°07'0 0.0
2017-Sep-17 15:29N 49°17' W 123°07'0 0.0
2017-Sep-17 14:59N 49°17' W 123°07'0 0.0
2017-Sep-17 14:29N 49°17' W 123°07'0 0.0
2017-Sep-17 14:00N 49°17' W 123°07'1 1.3
2017-Sep-17 13:30N 49°18' W 123°06'5 9.3
2017-Sep-17 13:00N 49°19' W 123°13'612.4
2017-Sep-17 12:30N 49°19' W 123°23'612.7
2017-Sep-17 12:00N 49°19' W 123°33'612.9
2017-Sep-17 11:30N 49°20' W 123°42'612.7
2017-Sep-17 11:00N 49°22' W 123°51'7490.3
2017-Sep-17 11:00N 49°18' W 123°42'1327.7 150 / 131015.0 5.4 14.0
2017-Sep-17 10:30N 49°23' W 124°01'612.6
2017-Sep-17 10:00N 49°24' W 124°11'612.7
2017-Sep-17 09:30N 49°26' W 124°20'612.8
2017-Sep-17 09:00N 49°29' W 124°28'612.9
2017-Sep-17 08:30N 49°34' W 124°35'612.8
2017-Sep-17 08:00N 49°39' W 124°42'5316.3
2017-Sep-17 08:00N 49°36' W 124°36'1122.4 140 / 251006.0 22.0 16.0
2017-Sep-17 07:30N 49°43' W 124°48'612.7
2017-Sep-17 07:00N 49°48' W 124°55'612.8
2017-Sep-17 06:30N 49°53' W 125°02'612.7
2017-Sep-17 06:00N 49°57' W 125°09'712.9
2017-Sep-17 05:30N 50°03' W 125°14'612.8
2017-Sep-17 05:01N 50°07' W 125°21'815.2
2017-Sep-17 04:30N 50°15' W 125°23'814.4
2017-Sep-17 03:58N 50°21' W 125°31'2416.5
2017-Sep-17 02:31N 50°28' W 126°07'020.2
2017-Sep-17 02:30N 50°28' W 126°07'1119.0
2017-Sep-17 01:56N 50°30' W 126°24'818.7
2017-Sep-17 01:29N 50°31' W 126°37'1316.0
2017-Sep-17 00:42N 50°40' W 126°51'420.1
2017-Sep-17 00:29N 50°42' W 126°57'2 3.6
2017-Sep-17 00:00N 50°42' W 126°54'113398.2 270 / 71010.0 5.4 16.0
2017-Sep-16 23:59N 50°46' W 127°11'919.3
2017-Sep-16 23:30N 50°49' W 127°24'1019.0
2017-Sep-16 23:00N 50°54' W 127°38'816.5
2017-Sep-16 22:30N 50°59' W 127°48'714.5
2017-Sep-16 22:00N 51°03' W 127°57'918.2
2017-Sep-16 21:30N 51°09' W 128°09'917.8
2017-Sep-16 21:01N 51°14' W 128°21'917.9
2017-Sep-16 20:31N 51°19' W 128°32'918.2
2017-Sep-16 20:01N 51°24' W 128°44'6379.7
2017-Sep-16 20:00N 51°18' W 128°42'1429.5 050 / 91011.0 24.0 16.0
2017-Sep-16 19:30N 51°29' W 128°56'918.3
2017-Sep-16 19:00N 51°35' W 129°08'918.5
2017-Sep-16 18:31N 51°40' W 129°20'1018.1
2017-Sep-16 17:57N 51°47' W 129°32'4018.7
2017-Sep-16 15:49N 52°24' W 129°58'618.6
2017-Sep-16 15:30N 52°29' W 130°02'918.3
2017-Sep-16 14:59N 52°38' W 130°08'1118.5
2017-Sep-16 14:22N 52°48' W 130°15'616.6
2017-Sep-16 14:00N 52°42' W 130°12'3331.0 1012.0 5.4 14.0
2017-Sep-16 12:55N 53°13' W 130°34'818.0
2017-Sep-16 12:29N 53°19' W 130°40'817.2
2017-Sep-16 12:00N 53°27' W 130°46'917.1
2017-Sep-16 11:30N 53°35' W 130°49'917.2
2017-Sep-16 11:00N 53°44' W 130°52'8674.4
2017-Sep-16 11:00N 53°36' W 130°48'1734.9 310 / 141014.0 21.0 11.0
2017-Sep-16 10:30N 53°52' W 130°57'917.9
2017-Sep-16 10:00N 54°00' W 131°02'917.3
2017-Sep-16 09:30N 54°09' W 131°01'816.6
2017-Sep-16 09:01N 54°17' W 131°02'816.3
2017-Sep-16 08:30N 54°25' W 131°09'816.5
2017-Sep-16 08:00N 54°32' W 131°16'916.6
2017-Sep-16 07:28N 54°41' W 131°14'817.3
2017-Sep-16 07:00N 54°48' W 131°10'917.5
2017-Sep-16 06:30N 54°57' W 131°08'  

Dump ship's entire track history